Time;durP1;ratioP1;P1;durP2;ratioP2;P2;SDS_P1;SDS_P2;PMS_P1;PMS_P2;Temp;Humidity;BMP_temperature;BMP_pressure;BME280_temperature;BME280_humidity;BME280_pressure;Samples;Min_cycle;Max_cycle;Signal;HPM_P1;HPM_P2
2022/08/08 00:01:38;;;;;;;2.60;1.95;;;23.60;99.90;;;;;;4231455;28;20209;-80
2022/08/08 00:03:59;;;;;;;2.08;1.80;;;23.70;99.90;;;;;;4231480;28;20217;-80
2022/08/08 00:06:09;;;;;;;2.20;1.58;;;23.60;99.90;;;;;;4231686;28;20267;-80
2022/08/08 00:08:20;;;;;;;2.70;1.95;;;23.60;99.90;;;;;;4231836;28;20267;-80
2022/08/08 00:10:31;;;;;;;2.53;2.22;;;23.60;99.90;;;;;;4231574;28;20762;-80
2022/08/08 00:12:39;;;;;;;1.70;1.60;;;23.60;99.90;;;;;;4231903;28;20718;-80
2022/08/08 00:14:49;;;;;;;2.42;1.98;;;23.60;99.90;;;;;;4231773;28;20345;-80
2022/08/08 00:16:56;;;;;;;2.92;1.80;;;23.50;99.90;;;;;;4231791;28;20217;-80
2022/08/08 00:19:06;;;;;;;2.80;2.15;;;23.60;99.90;;;;;;4231112;28;20210;-80
2022/08/08 00:21:15;;;;;;;2.33;1.90;;;23.50;99.90;;;;;;4230724;28;20262;-78
2022/08/08 00:23:27;;;;;;;1.73;1.63;;;23.60;99.90;;;;;;4230875;28;20221;-77
2022/08/08 00:25:33;;;;;;;2.30;2.10;;;23.50;99.90;;;;;;4231535;28;20209;-78
2022/08/08 00:27:37;;;;;;;1.95;1.73;;;23.50;99.90;;;;;;4231160;28;20263;-77
2022/08/08 00:29:47;;;;;;;2.75;2.08;;;23.60;99.90;;;;;;4230677;28;20213;-77
2022/08/08 00:31:53;;;;;;;2.10;1.90;;;23.50;99.90;;;;;;4231432;28;20229;-77
2022/08/08 00:36:29;;;;;;;2.40;1.90;;;23.50;99.90;;;;;;4230654;28;20202;-79
2022/08/08 00:38:40;;;;;;;2.13;1.80;;;23.50;99.90;;;;;;4231539;28;20270;-80
2022/08/08 00:41:19;;;;;;;2.17;1.98;;;23.50;99.90;;;;;;4230792;28;20213;-80
2022/08/08 00:43:46;;;;;;;2.75;1.85;;;23.50;99.90;;;;;;4212347;28;20279;-80
2022/08/08 00:46:12;;;;;;;2.75;2.00;;;23.60;99.90;;;;;;4197605;28;20218;-80
2022/08/08 00:48:50;;;;;;;1.70;1.60;;;23.50;99.90;;;;;;4198041;28;20219;-80
2022/08/08 00:51:36;;;;;;;3.55;2.15;;;23.50;99.90;;;;;;4197162;28;20764;-77
2022/08/08 00:54:17;;;;;;;2.67;2.10;;;23.50;99.90;;;;;;4196825;28;20280;-78
2022/08/08 00:56:50;;;;;;;2.25;2.00;;;23.50;99.90;;;;;;4187747;28;20214;-78
2022/08/08 00:59:29;;;;;;;5.30;2.15;;;23.50;99.90;;;;;;4191762;28;20284;-77
2022/08/08 01:01:39;;;;;;;2.33;1.98;;;23.40;99.90;;;;;;4196319;28;20261;-78
2022/08/08 01:04:23;;;;;;;2.22;1.92;;;23.50;99.90;;;;;;4197559;28;20557;-78
2022/08/08 01:07:25;;;;;;;2.85;2.10;;;23.40;99.90;;;;;;4196788;28;20220;-77
2022/08/08 01:10:01;;;;;;;2.08;1.80;;;23.50;99.90;;;;;;4178012;28;20223;-78
2022/08/08 01:12:38;;;;;;;2.95;2.05;;;23.40;99.90;;;;;;4192212;28;20340;-78
2022/08/08 01:15:12;;;;;;;2.42;2.05;;;23.40;99.90;;;;;;4187096;28;20264;-78
2022/08/08 01:17:56;;;;;;;3.08;1.85;;;23.40;99.90;;;;;;4196369;28;20210;-77
2022/08/08 01:20:45;;;;;;;2.60;2.40;;;23.40;99.90;;;;;;4196775;28;20219;-77
2022/08/08 01:23:38;;;;;;;2.90;1.85;;;23.40;99.90;;;;;;4197072;28;20219;-78
2022/08/08 01:26:34;;;;;;;2.53;2.10;;;23.40;99.90;;;;;;4197276;28;20329;-78
2022/08/08 01:29:11;;;;;;;1.83;1.73;;;23.40;99.90;;;;;;4173657;28;20265;-78
2022/08/08 01:31:49;;;;;;;2.40;2.20;;;23.40;99.90;;;;;;4164834;28;20716;-77
2022/08/08 01:34:28;;;;;;;2.72;1.73;;;23.40;99.90;;;;;;4173678;28;20207;-78
2022/08/08 01:37:05;;;;;;;2.20;2.00;;;23.40;99.90;;;;;;4180036;28;20212;-77
2022/08/08 01:39:21;;;;;;;2.55;2.20;;;23.40;99.90;;;;;;4179679;28;20269;-77
2022/08/08 01:41:31;;;;;;;3.03;2.30;;;23.40;99.90;;;;;;4180366;28;20291;-78
2022/08/08 01:43:42;;;;;;;2.35;2.13;;;23.30;99.90;;;;;;4180211;28;20219;-78
2022/08/08 01:45:56;;;;;;;2.58;2.00;;;23.40;99.90;;;;;;4179667;28;20242;-78
2022/08/08 01:48:06;;;;;;;2.70;2.15;;;23.40;99.90;;;;;;4179668;28;20215;-77
2022/08/08 01:50:18;;;;;;;2.97;2.05;;;23.30;99.90;;;;;;4179692;28;20211;-77
2022/08/08 01:52:36;;;;;;;2.38;2.05;;;23.40;99.90;;;;;;4179722;28;20231;-77
2022/08/08 01:54:56;;;;;;;2.35;1.95;;;23.30;99.90;;;;;;4180174;28;20268;-77
2022/08/08 01:57:10;;;;;;;2.50;1.98;;;23.30;99.90;;;;;;4179699;28;20727;-78
2022/08/08 01:59:34;;;;;;;2.58;2.20;;;23.40;99.90;;;;;;4179689;28;20269;-77
2022/08/08 02:01:55;;;;;;;2.33;2.10;;;23.40;99.90;;;;;;4180010;28;20216;-77
2022/08/08 02:04:07;;;;;;;2.40;2.20;;;23.40;99.90;;;;;;4179953;28;20211;-77
2022/08/08 02:06:18;;;;;;;2.22;2.00;;;23.30;99.90;;;;;;4179821;28;20281;-77
2022/08/08 02:08:33;;;;;;;3.15;2.10;;;23.30;99.90;;;;;;4179819;28;20224;-77
2022/08/08 02:10:53;;;;;;;2.95;2.35;;;23.30;99.90;;;;;;4179534;28;20620;-77
2022/08/08 02:13:00;;;;;;;2.40;2.20;;;23.30;99.90;;;;;;4181661;28;20238;-78
2022/08/08 02:15:08;;;;;;;2.38;1.70;;;23.30;99.90;;;;;;4182955;28;20721;-78
2022/08/08 02:17:16;;;;;;;1.92;1.83;;;23.30;99.90;;;;;;4183360;28;20218;-78
2022/08/08 02:19:24;;;;;;;2.65;2.33;;;23.30;99.90;;;;;;4183087;28;20773;-78
2022/08/08 02:23:59;;;;;;;2.95;2.20;;;23.30;99.90;;;;;;4182997;28;20214;-77
2022/08/08 02:26:09;;;;;;;2.28;2.08;;;23.30;99.90;;;;;;4182471;28;20215;-77
2022/08/08 02:28:19;;;;;;;2.30;2.10;;;23.30;99.90;;;;;;4183016;28;20215;-77
2022/08/08 02:30:28;;;;;;;2.22;2.03;;;23.30;99.90;;;;;;4188726;28;20207;-77
2022/08/08 02:32:43;;;;;;;2.30;2.05;;;23.30;99.90;;;;;;4199733;28;20230;-77
2022/08/08 02:35:09;;;;;;;2.60;2.13;;;23.30;99.90;;;;;;4199810;28;20219;-78
2022/08/08 02:37:20;;;;;;;2.58;2.28;;;23.30;99.90;;;;;;4199592;28;20272;-78
2022/08/08 02:39:38;;;;;;;4.25;1.92;;;23.30;99.90;;;;;;4199781;28;20800;-77
2022/08/08 02:42:03;;;;;;;4.25;2.33;;;23.20;99.90;;;;;;4200061;28;20257;-77
2022/08/08 02:44:37;;;;;;;1.92;1.83;;;23.20;99.90;;;;;;4207690;28;20278;-77
2022/08/08 02:46:52;;;;;;;2.38;2.17;;;23.30;99.90;;;;;;4232973;28;20213;-77
2022/08/08 02:49:17;;;;;;;2.50;2.17;;;23.20;99.90;;;;;;4233082;28;20217;-77
2022/08/08 02:51:57;;;;;;;2.25;1.80;;;23.30;99.90;;;;;;4232229;28;20670;-77
2022/08/08 02:54:28;;;;;;;3.35;2.42;;;23.20;99.90;;;;;;4231470;28;20210;-77
2022/08/08 02:56:56;;;;;;;3.00;2.40;;;23.20;99.90;;;;;;4229446;28;20665;-78
2022/08/08 02:59:50;;;;;;;2.38;2.17;;;23.20;99.90;;;;;;4232059;28;20615;-77
2022/08/08 03:02:29;;;;;;;3.78;2.03;;;23.20;99.90;;;;;;4231976;28;20318;-77
2022/08/08 03:05:13;;;;;;;2.75;2.40;;;23.20;99.90;;;;;;4232342;28;20677;-77
2022/08/08 03:07:50;;;;;;;2.20;1.90;;;23.20;99.90;;;;;;4216877;28;20225;-77
2022/08/08 03:10:26;;;;;;;3.35;2.25;;;23.20;99.90;;;;;;4232097;28;20255;-77
2022/08/08 03:13:15;;;;;;;2.85;2.13;;;23.20;99.90;;;;;;4231864;28;20341;-77
2022/08/08 03:16:00;;;;;;;3.50;2.20;;;23.20;99.90;;;;;;4232177;28;21010;-77
2022/08/08 03:18:08;;;;;;;3.90;2.20;;;23.20;99.90;;;;;;4224710;28;20286;-78
2022/08/08 03:20:12;;;;;;;2.45;2.25;;;23.20;99.90;;;;;;4231843;28;20286;-78
2022/08/08 03:22:14;;;;;;;2.70;2.10;;;23.20;99.90;;;;;;4231801;28;20209;-77
2022/08/08 03:24:18;;;;;;;3.72;2.58;;;23.20;99.90;;;;;;4231149;28;20262;-77
2022/08/08 03:26:30;;;;;;;2.70;2.35;;;23.10;99.90;;;;;;4231874;28;20264;-77
2022/08/08 03:28:40;;;;;;;2.53;2.10;;;23.20;99.90;;;;;;4232234;28;20287;-77
2022/08/08 03:30:44;;;;;;;2.85;2.35;;;23.20;99.90;;;;;;4232065;28;20271;-77
2022/08/08 03:35:07;;;;;;;2.25;2.05;;;23.20;99.90;;;;;;4232046;28;20576;-77
2022/08/08 03:37:11;;;;;;;2.95;2.10;;;23.20;99.90;;;;;;4231668;28;20210;-77
2022/08/08 03:39:14;;;;;;;2.72;2.28;;;23.20;99.90;;;;;;4231682;28;20218;-77
2022/08/08 03:41:18;;;;;;;2.85;2.50;;;23.20;99.90;;;;;;4231638;28;20666;-78
2022/08/08 03:43:21;;;;;;;3.47;2.45;;;23.10;99.90;;;;;;4231857;28;20262;-78
2022/08/08 03:45:25;;;;;;;3.25;2.67;;;23.20;99.90;;;;;;4232042;28;20709;-78
2022/08/08 03:47:27;;;;;;;2.63;2.35;;;23.10;99.90;;;;;;4231795;28;20209;-78
2022/08/08 03:49:30;;;;;;;3.58;2.63;;;23.20;99.90;;;;;;4231478;28;20240;-78
2022/08/08 03:51:32;;;;;;;3.25;2.45;;;23.10;99.90;;;;;;4231483;28;20235;-78
2022/08/08 03:53:37;;;;;;;3.05;2.40;;;23.10;99.90;;;;;;4231501;28;20241;-78
2022/08/08 03:55:40;;;;;;;2.97;2.20;;;23.10;99.90;;;;;;4231718;28;20221;-78
2022/08/08 03:57:48;;;;;;;3.50;2.25;;;23.10;99.90;;;;;;4231386;28;20595;-78
2022/08/08 03:59:50;;;;;;;2.40;2.08;;;23.10;99.90;;;;;;4231818;28;20213;-78
2022/08/08 04:01:53;;;;;;;2.95;2.60;;;23.10;99.90;;;;;;4231801;28;20262;-78
2022/08/08 04:03:55;;;;;;;2.83;2.25;;;23.10;99.90;;;;;;4232152;28;20222;-78
2022/08/08 04:05:57;;;;;;;3.40;2.35;;;23.10;99.90;;;;;;4231610;28;20259;-78
2022/08/08 04:08:01;;;;;;;2.78;2.47;;;23.10;99.90;;;;;;4231909;28;20711;-78
2022/08/08 04:10:05;;;;;;;3.63;2.30;;;23.10;99.90;;;;;;4231734;28;20213;-78
2022/08/08 04:12:07;;;;;;;2.83;2.33;;;23.10;99.90;;;;;;4231552;28;20240;-78
2022/08/08 04:14:11;;;;;;;3.00;2.60;;;23.10;99.90;;;;;;4231574;28;20214;-78
2022/08/08 04:16:13;;;;;;;2.53;2.30;;;23.10;99.90;;;;;;4231518;28;20727;-78
2022/08/08 04:18:15;;;;;;;3.22;2.60;;;23.10;99.90;;;;;;4231696;28;20619;-78
2022/08/08 04:20:18;;;;;;;4.95;2.42;;;23.10;99.90;;;;;;4231688;28;20218;-78
2022/08/08 04:22:20;;;;;;;2.53;2.15;;;23.10;99.90;;;;;;4230731;28;20281;-78
2022/08/08 04:24:22;;;;;;;2.40;2.17;;;23.10;99.90;;;;;;4231109;28;20211;-78
2022/08/08 04:26:25;;;;;;;3.58;2.63;;;23.10;99.90;;;;;;4230998;28;20271;-78
2022/08/08 04:28:27;;;;;;;5.55;2.53;;;23.10;99.90;;;;;;4231499;28;20203;-78
2022/08/08 04:30:30;;;;;;;3.28;2.42;;;23.10;99.90;;;;;;4231175;28;20213;-78
2022/08/08 04:32:33;;;;;;;3.60;2.25;;;23.10;99.90;;;;;;4230760;28;20286;-78
2022/08/08 04:34:35;;;;;;;2.63;2.42;;;23.10;99.90;;;;;;4230797;28;20218;-78
2022/08/08 04:36:38;;;;;;;3.55;2.83;;;23.10;99.90;;;;;;4230345;28;20210;-78
2022/08/08 04:38:40;;;;;;;2.30;2.10;;;23.10;99.90;;;;;;4231271;28;20677;-78
2022/08/08 04:40:42;;;;;;;3.15;2.33;;;23.10;99.90;;;;;;4231696;28;20590;-78
2022/08/08 04:42:45;;;;;;;2.90;2.28;;;23.00;99.90;;;;;;4231412;28;20666;-78
2022/08/08 04:44:47;;;;;;;2.58;2.08;;;23.00;99.90;;;;;;4230738;28;20642;-78
2022/08/08 04:46:51;;;;;;;4.53;2.47;;;23.00;99.90;;;;;;4231028;28;20552;-78
2022/08/08 04:48:53;;;;;;;3.17;2.55;;;23.00;99.90;;;;;;4231427;28;20225;-78
2022/08/08 04:50:55;;;;;;;2.60;2.20;;;23.00;99.90;;;;;;4230523;28;20662;-78
2022/08/08 04:52:58;;;;;;;2.72;2.30;;;23.00;99.90;;;;;;4230589;28;20773;-79
2022/08/08 04:55:00;;;;;;;2.65;2.22;;;23.00;99.90;;;;;;4230909;28;20217;-78
2022/08/08 04:57:02;;;;;;;2.95;2.55;;;23.00;99.90;;;;;;4230591;28;20558;-78
2022/08/08 04:59:04;;;;;;;3.13;2.55;;;23.00;99.90;;;;;;4230506;28;20554;-78
2022/08/08 05:01:07;;;;;;;3.65;2.42;;;23.00;99.90;;;;;;4230329;28;20271;-78
2022/08/08 05:03:11;;;;;;;2.58;2.38;;;23.00;99.90;;;;;;4230061;28;20209;-78
2022/08/08 05:05:13;;;;;;;5.38;2.50;;;23.00;99.90;;;;;;4230658;28;20669;-78
2022/08/08 05:07:15;;;;;;;3.47;2.63;;;23.00;99.90;;;;;;4230725;28;20272;-78
2022/08/08 05:09:17;;;;;;;2.90;2.47;;;23.00;99.90;;;;;;4230310;28;20683;-78
2022/08/08 05:11:20;;;;;;;3.38;2.53;;;23.00;99.90;;;;;;4230248;28;20217;-78
2022/08/08 05:13:22;;;;;;;3.53;2.55;;;23.00;99.90;;;;;;4230294;28;20658;-78
2022/08/08 05:15:24;;;;;;;3.30;2.53;;;23.00;99.90;;;;;;4230328;28;20217;-78
2022/08/08 05:17:27;;;;;;;3.20;2.15;;;23.00;99.90;;;;;;4230516;28;20221;-78
2022/08/08 05:19:32;;;;;;;2.65;2.45;;;23.00;99.90;;;;;;4230171;28;20685;-78
2022/08/08 05:21:35;;;;;;;2.75;2.55;;;23.00;99.90;;;;;;4231316;28;20263;-80
2022/08/08 05:23:37;;;;;;;3.00;2.22;;;23.00;99.90;;;;;;4230737;28;20214;-80
2022/08/08 05:25:39;;;;;;;2.63;2.42;;;23.00;99.90;;;;;;4230507;28;20213;-80
2022/08/08 05:27:42;;;;;;;2.33;2.13;;;23.00;99.90;;;;;;4230918;28;20259;-80
2022/08/08 05:29:44;;;;;;;2.42;2.20;;;23.00;99.90;;;;;;4230357;28;20235;-80
2022/08/08 05:31:46;;;;;;;4.15;2.60;;;23.00;99.90;;;;;;4230937;28;20266;-80
2022/08/08 05:33:49;;;;;;;2.72;2.30;;;23.00;99.90;;;;;;4230360;28;20631;-80
2022/08/08 05:35:53;;;;;;;3.10;2.55;;;23.00;99.90;;;;;;4230284;28;20235;-80
2022/08/08 05:38:01;;;;;;;2.65;2.40;;;23.00;99.90;;;;;;4229651;28;20218;-80
2022/08/08 05:40:04;;;;;;;2.50;2.30;;;22.90;99.90;;;;;;4230180;28;20550;-80
2022/08/08 05:42:09;;;;;;;3.83;2.67;;;23.00;99.90;;;;;;4230001;28;20661;-80
2022/08/08 05:44:13;;;;;;;2.85;2.28;;;23.00;99.90;;;;;;4229500;28;20233;-80
2022/08/08 05:46:16;;;;;;;3.63;2.53;;;23.00;99.90;;;;;;4229689;28;20259;-80
2022/08/08 05:48:18;;;;;;;3.38;2.50;;;23.00;99.90;;;;;;4229597;28;20262;-80
2022/08/08 05:50:20;;;;;;;3.25;2.40;;;23.00;99.90;;;;;;4230553;28;20218;-80
2022/08/08 05:52:24;;;;;;;3.65;2.65;;;23.00;99.90;;;;;;4230256;28;20263;-80
2022/08/08 05:54:27;;;;;;;3.75;2.30;;;22.90;99.90;;;;;;4230655;28;20291;-80
2022/08/08 05:56:30;;;;;;;3.92;2.85;;;23.00;99.90;;;;;;4230494;28;20210;-80
2022/08/08 05:58:34;;;;;;;2.88;2.28;;;23.00;99.90;;;;;;4230477;28;20618;-80
2022/08/08 06:00:38;;;;;;;3.80;2.53;;;23.00;99.90;;;;;;4230186;28;20271;-80
2022/08/08 06:05:05;;;;;;;3.90;2.92;;;23.00;99.90;;;;;;4230866;28;20177;-80
2022/08/08 06:07:09;;;;;;;3.33;2.40;;;23.00;99.90;;;;;;4230084;28;20266;-80
2022/08/08 06:09:14;;;;;;;3.38;2.75;;;23.00;99.90;;;;;;4229820;28;20266;-80
2022/08/08 06:11:16;;;;;;;5.60;3.00;;;23.00;99.90;;;;;;4230016;28;20218;-80
2022/08/08 06:13:21;;;;;;;3.72;2.42;;;23.00;99.90;;;;;;4229425;28;20217;-80
2022/08/08 06:15:23;;;;;;;3.17;2.55;;;23.00;99.90;;;;;;4229507;28;20217;-80
2022/08/08 06:17:27;;;;;;;5.20;2.65;;;23.00;99.90;;;;;;4229290;28;20274;-81
2022/08/08 06:19:29;;;;;;;3.10;2.53;;;23.00;99.90;;;;;;4229618;28;20258;-81
2022/08/08 06:21:32;;;;;;;4.28;2.83;;;23.00;99.90;;;;;;4229537;28;20218;-81
2022/08/08 06:23:34;;;;;;;6.05;2.33;;;23.00;99.90;;;;;;4229646;28;20236;-81
2022/08/08 06:25:42;;;;;;;2.70;2.40;;;23.00;99.90;;;;;;4229780;28;20290;-81
2022/08/08 06:27:46;;;;;;;3.35;2.33;;;23.00;99.90;;;;;;4229526;28;20217;-81
2022/08/08 06:29:55;;;;;;;3.00;2.50;;;23.10;99.90;;;;;;4231343;28;20218;-81
2022/08/08 06:32:01;;;;;;;4.15;2.58;;;23.00;99.90;;;;;;4229810;28;20213;-80
2022/08/08 06:34:08;;;;;;;2.75;2.45;;;23.00;99.90;;;;;;4229298;28;20237;-80
2022/08/08 06:36:12;;;;;;;2.70;2.50;;;23.00;99.90;;;;;;4229942;28;20282;-80
2022/08/08 06:38:19;;;;;;;4.95;2.70;;;23.00;99.90;;;;;;4229870;28;20218;-80
2022/08/08 06:40:24;;;;;;;3.47;2.70;;;23.00;99.90;;;;;;4230300;28;20217;-80
2022/08/08 06:42:30;;;;;;;4.35;2.50;;;23.00;99.90;;;;;;4229976;28;20221;-78
2022/08/08 06:44:35;;;;;;;4.18;2.60;;;23.10;99.90;;;;;;4229914;28;20233;-80
2022/08/08 06:46:38;;;;;;;3.22;2.38;;;23.00;99.90;;;;;;4230062;28;20213;-79
2022/08/08 06:48:41;;;;;;;2.60;2.40;;;22.90;99.90;;;;;;4230332;28;20218;-81
2022/08/08 06:50:45;;;;;;;6.97;4.43;;;22.90;99.90;;;;;;4230201;28;20244;-80
2022/08/08 06:52:48;;;;;;;4.32;2.75;;;22.90;99.90;;;;;;4230173;28;20333;-82
2022/08/08 06:54:50;;;;;;;5.28;3.05;;;22.90;99.90;;;;;;4230154;28;20320;-82
2022/08/08 06:56:53;;;;;;;4.63;2.92;;;22.90;99.90;;;;;;4230163;28;20226;-82
2022/08/08 06:58:57;;;;;;;3.75;2.85;;;22.90;99.90;;;;;;4230666;28;20218;-82
2022/08/08 07:01:01;;;;;;;3.17;2.88;;;22.90;99.90;;;;;;4233135;28;20213;-84
2022/08/08 07:03:08;;;;;;;4.70;3.00;;;22.90;99.90;;;;;;4232898;28;20277;-84
2022/08/08 07:05:15;;;;;;;3.88;3.00;;;22.90;99.90;;;;;;4233110;28;20206;-84
2022/08/08 07:07:23;;;;;;;2.95;2.65;;;22.90;99.90;;;;;;4233429;28;20214;-84
2022/08/08 07:09:30;;;;;;;3.80;2.60;;;22.90;99.90;;;;;;4233913;28;20238;-82
2022/08/08 07:11:41;;;;;;;4.80;3.33;;;23.00;99.90;;;;;;4233653;28;20263;-82
2022/08/08 07:13:45;;;;;;;3.38;2.88;;;23.00;99.90;;;;;;4231104;28;20217;-82
2022/08/08 07:15:53;;;;;;;5.07;3.17;;;22.90;99.90;;;;;;4220268;27;20552;-82
2022/08/08 07:18:01;;;;;;;5.50;3.38;;;22.90;99.90;;;;;;4230639;28;20231;-82
2022/08/08 07:20:06;;;;;;;5.18;3.22;;;23.00;99.90;;;;;;4233682;28;20209;-81
2022/08/08 07:22:09;;;;;;;5.97;3.63;;;23.00;99.90;;;;;;4233237;28;20218;-83
2022/08/08 07:24:17;;;;;;;4.88;3.25;;;23.00;99.90;;;;;;4233085;27;20218;-83
2022/08/08 07:26:22;;;;;;;10.70;3.60;;;23.00;99.90;;;;;;4229218;28;20213;-80
2022/08/08 07:28:25;;;;;;;7.70;5.10;;;22.90;99.90;;;;;;4221852;28;20209;-80
2022/08/08 07:30:27;;;;;;;11.23;5.50;;;22.80;99.90;;;;;;4225301;28;20943;-80
2022/08/08 07:32:32;;;;;;;11.10;6.22;;;22.60;99.90;;;;;;4227574;27;20653;-79
2022/08/08 07:34:36;;;;;;;11.68;6.60;;;22.40;99.90;;;;;;4228326;27;20282;-80
2022/08/08 07:36:38;;;;;;;9.15;5.90;;;22.40;99.90;;;;;;4230995;27;20221;-81
2022/08/08 07:38:47;;;;;;;8.23;5.50;;;22.30;99.90;;;;;;4227256;27;20221;-78
2022/08/08 07:40:51;;;;;;;7.65;5.65;;;22.30;99.90;;;;;;4220224;28;20214;-79
2022/08/08 07:42:55;;;;;;;7.65;5.68;;;22.10;99.90;;;;;;4219493;28;20255;-80
2022/08/08 07:44:57;;;;;;;9.20;6.20;;;22.20;99.90;;;;;;4227029;27;20695;-80
2022/08/08 07:47:00;;;;;;;9.50;5.88;;;22.20;99.90;;;;;;4229011;28;20247;-79
2022/08/08 07:51:51;;;;;;;10.35;5.43;;;22.20;99.90;;;;;;4192121;28;20211;-78
2022/08/08 07:54:15;;;;;;;8.90;5.47;;;22.30;99.90;;;;;;4185601;28;20220;-78
2022/08/08 07:56:17;;;;;;;11.40;5.00;;;22.20;99.90;;;;;;4191360;28;20211;-78
2022/08/08 07:58:26;;;;;;;8.15;5.38;;;22.30;99.90;;;;;;4194020;28;20219;-78
2022/08/08 08:00:34;;;;;;;8.90;5.47;;;22.30;99.90;;;;;;4193801;28;20632;-77
2022/08/08 08:02:39;;;;;;;7.50;5.40;;;22.30;99.90;;;;;;4194726;28;20215;-78
2022/08/08 08:04:46;;;;;;;8.15;5.03;;;22.30;99.90;;;;;;4191769;28;20203;-79
2022/08/08 08:06:49;;;;;;;9.75;5.55;;;22.30;99.90;;;;;;4191656;28;20219;-79
2022/08/08 08:08:56;;;;;;;12.15;5.50;;;22.30;99.90;;;;;;4196312;28;20215;-79
2022/08/08 08:11:00;;;;;;;10.07;5.15;;;22.30;99.90;;;;;;4188790;28;20264;-79
2022/08/08 08:13:23;;;;;;;8.30;5.20;;;22.30;99.90;;;;;;4193423;28;20211;-80
2022/08/08 08:15:26;;;;;;;10.73;5.15;;;22.30;99.90;;;;;;4189000;28;20231;-80
2022/08/08 08:17:30;;;;;;;9.90;4.63;;;22.40;99.90;;;;;;4192587;28;20212;-80
2022/08/08 08:19:35;;;;;;;8.18;4.90;;;22.30;99.90;;;;;;4194602;28;20257;-80
2022/08/08 08:21:41;;;;;;;8.20;4.25;;;22.30;99.90;;;;;;4178504;28;20212;-80
2022/08/08 08:23:43;;;;;;;9.07;4.50;;;22.40;99.90;;;;;;4229883;28;20219;-80
2022/08/08 08:25:46;;;;;;;10.70;4.18;;;22.30;99.90;;;;;;4229631;27;20263;-80
2022/08/08 08:27:48;;;;;;;6.53;4.22;;;22.30;99.90;;;;;;4229557;28;20240;-80
2022/08/08 08:29:50;;;;;;;6.72;4.00;;;22.30;99.90;;;;;;4227598;28;20214;-80
2022/08/08 08:31:52;;;;;;;7.18;4.18;;;22.40;99.90;;;;;;4231483;27;20259;-80
2022/08/08 08:33:55;;;;;;;6.65;4.32;;;22.40;99.90;;;;;;4227462;28;20267;-80
2022/08/08 08:35:57;;;;;;;7.35;4.40;;;22.40;99.90;;;;;;4227817;28;20245;-81
2022/08/08 08:38:01;;;;;;;5.30;4.15;;;22.40;99.90;;;;;;4229431;28;20270;-80
2022/08/08 08:40:05;;;;;;;7.40;4.15;;;22.50;99.90;;;;;;4230625;28;20680;-81
2022/08/08 08:42:08;;;;;;;6.38;3.85;;;22.50;99.90;;;;;;4230683;28;20206;-82
2022/08/08 08:44:11;;;;;;;7.80;4.50;;;22.50;99.90;;;;;;4224835;27;20738;-81
2022/08/08 08:46:14;;;;;;;5.07;4.20;;;22.50;99.90;;;;;;4225287;28;20260;-80
2022/08/08 08:48:19;;;;;;;7.18;3.83;;;22.50;99.90;;;;;;4232424;27;20255;-82
2022/08/08 08:50:24;;;;;;;6.72;4.05;;;22.50;99.90;;;;;;4230124;28;20623;-82
2022/08/08 08:52:26;;;;;;;6.18;3.80;;;22.60;99.90;;;;;;4228027;28;20274;-81
2022/08/08 08:54:34;;;;;;;6.10;4.13;;;22.50;99.90;;;;;;4228523;28;20222;-82
2022/08/08 08:56:37;;;;;;;6.95;3.70;;;22.60;99.90;;;;;;4229009;28;20217;-79
2022/08/08 08:58:42;;;;;;;8.20;3.88;;;22.60;99.90;;;;;;4227719;28;20217;-81
2022/08/08 09:00:45;;;;;;;5.65;3.72;;;22.70;99.90;;;;;;4227020;28;20214;-79
2022/08/08 09:02:49;;;;;;;8.95;3.95;;;22.70;99.90;;;;;;4225436;28;20712;-80
2022/08/08 09:04:56;;;;;;;6.18;3.60;;;22.80;99.90;;;;;;4222812;28;20215;-80
2022/08/08 09:07:02;;;;;;;8.40;4.07;;;22.80;99.90;;;;;;4227623;28;20221;-81
2022/08/08 09:09:08;;;;;;;10.98;3.40;;;22.80;99.90;;;;;;4228540;28;20213;-80
2022/08/08 09:11:13;;;;;;;6.72;4.22;;;22.80;99.90;;;;;;4221674;28;20210;-81
2022/08/08 09:13:17;;;;;;;6.50;4.05;;;22.80;99.90;;;;;;4225292;28;20214;-81
2022/08/08 09:15:20;;;;;;;4.28;3.72;;;22.80;99.90;;;;;;4219878;28;20234;-82
2022/08/08 09:17:24;;;;;;;9.07;3.75;;;22.80;99.90;;;;;;4230206;28;20210;-79
2022/08/08 09:19:27;;;;;;;6.25;4.00;;;22.80;99.90;;;;;;4230022;28;20254;-80
2022/08/08 09:21:30;;;;;;;6.05;4.05;;;22.90;99.90;;;;;;4226666;28;20213;-79
2022/08/08 09:23:32;;;;;;;6.95;4.05;;;22.90;99.90;;;;;;4223120;28;20210;-82
2022/08/08 09:25:37;;;;;;;6.60;4.15;;;23.00;99.90;;;;;;4228211;28;20206;-84
2022/08/08 09:27:41;;;;;;;7.88;4.15;;;22.90;99.90;;;;;;4223425;28;20268;-81
2022/08/08 09:29:52;;;;;;;7.40;4.00;;;22.90;99.90;;;;;;4232276;27;20241;-82
2022/08/08 09:32:00;;;;;;;13.38;4.20;;;22.80;99.90;;;;;;4224006;28;20282;-81
2022/08/08 09:34:05;;;;;;;4.25;3.80;;;22.80;99.90;;;;;;4224547;28;20205;-81
2022/08/08 09:36:17;;;;;;;5.82;3.95;;;22.80;99.90;;;;;;4229585;27;20282;-81
2022/08/08 09:38:38;;;;;;;5.60;3.45;;;22.90;99.90;;;;;;4226024;28;20225;-81
2022/08/08 09:40:44;;;;;;;8.95;4.20;;;22.90;99.90;;;;;;4226525;28;20259;-82
2022/08/08 09:42:49;;;;;;;6.85;3.75;;;22.90;99.90;;;;;;4225806;28;20217;-81
2022/08/08 09:45:03;;;;;;;6.28;3.22;;;22.80;99.90;;;;;;4230496;28;20287;-83
2022/08/08 09:47:08;;;;;;;8.52;3.55;;;22.80;99.90;;;;;;4229280;28;20263;-83
2022/08/08 09:49:11;;;;;;;5.55;3.30;;;22.80;99.90;;;;;;4232262;27;20214;-83
2022/08/08 09:51:15;;;;;;;6.60;3.53;;;22.90;99.90;;;;;;4230170;28;20214;-83
2022/08/08 09:53:20;;;;;;;5.93;3.20;;;22.90;99.90;;;;;;4220064;28;20719;-82
2022/08/08 09:55:25;;;;;;;7.43;2.95;;;23.00;99.90;;;;;;4223124;28;20237;-80
2022/08/08 09:57:37;;;;;;;6.75;3.15;;;23.10;99.90;;;;;;4224823;28;20955;-81
2022/08/08 09:59:43;;;;;;;6.93;3.33;;;23.10;99.90;;;;;;4223775;28;21605;-81
2022/08/08 10:01:47;;;;;;;5.63;3.00;;;23.10;99.90;;;;;;4228199;28;20259;-81
2022/08/08 10:03:51;;;;;;;9.50;3.70;;;23.00;99.90;;;;;;4229329;28;20214;-77
2022/08/08 10:05:53;;;;;;;7.50;3.13;;;23.00;99.90;;;;;;4227399;28;20263;-77
2022/08/08 10:07:57;;;;;;;4.07;2.70;;;23.10;99.90;;;;;;4229583;28;20221;-78
2022/08/08 10:09:59;;;;;;;5.55;2.65;;;23.20;99.90;;;;;;4229034;28;20213;-84
2022/08/08 10:12:02;;;;;;;5.53;2.50;;;23.20;99.90;;;;;;4216134;28;20955;-84
2022/08/08 10:14:06;;;;;;;5.63;2.70;;;23.20;99.90;;;;;;4229197;28;20217;-82
2022/08/08 10:16:09;;;;;;;4.50;2.40;;;23.20;99.90;;;;;;4222486;28;21647;-82
2022/08/08 10:18:12;;;;;;;5.45;2.60;;;23.30;99.90;;;;;;4220633;28;20218;-82
2022/08/08 10:20:14;;;;;;;4.25;2.33;;;23.30;99.90;;;;;;4228093;28;20250;-79
2022/08/08 10:22:19;;;;;;;4.82;2.58;;;23.30;99.90;;;;;;4227054;28;20210;-79
2022/08/08 10:24:22;;;;;;;4.40;2.58;;;23.30;99.90;;;;;;4229701;28;20222;-79
2022/08/08 10:26:28;;;;;;;10.07;2.97;;;23.30;99.90;;;;;;4227790;28;20210;-80
2022/08/08 10:28:31;;;;;;;4.43;2.42;;;23.20;99.90;;;;;;4219657;28;20244;-82
2022/08/08 10:30:34;;;;;;;40.45;10.80;;;23.30;99.90;;;;;;4226912;28;20231;-85
2022/08/08 10:32:40;;;;;;;35.78;8.20;;;23.20;99.90;;;;;;4229766;28;20210;-80
2022/08/08 10:34:51;;;;;;;18.42;5.32;;;23.20;99.90;;;;;;4233195;28;20262;-82
2022/08/08 10:36:55;;;;;;;10.73;3.70;;;23.20;99.90;;;;;;4234490;28;20233;-86
2022/08/08 10:39:02;;;;;;;17.73;4.07;;;23.30;99.90;;;;;;4233602;28;20218;-81
2022/08/08 10:41:06;;;;;;;7.63;2.90;;;23.30;99.90;;;;;;4232851;28;20209;-81
2022/08/08 10:43:10;;;;;;;11.63;3.33;;;23.30;99.90;;;;;;4232422;28;20271;-80
2022/08/08 10:45:13;;;;;;;7.53;2.67;;;23.30;99.90;;;;;;4229236;28;20304;-80
2022/08/08 10:47:17;;;;;;;11.13;3.00;;;23.30;99.90;;;;;;4230528;28;20210;-80
2022/08/08 10:49:23;;;;;;;8.23;3.00;;;23.40;99.90;;;;;;4230443;28;20218;-81
2022/08/08 10:51:28;;;;;;;5.32;2.67;;;23.40;99.90;;;;;;4234215;27;20213;-81
2022/08/08 10:53:36;;;;;;;6.22;2.83;;;23.40;99.90;;;;;;4229968;27;20275;-82
2022/08/08 10:55:39;;;;;;;5.97;2.42;;;23.50;99.90;;;;;;4229796;28;20213;-80
2022/08/08 10:57:43;;;;;;;4.05;2.58;;;23.50;99.90;;;;;;4231234;28;20900;-79
2022/08/08 10:59:51;;;;;;;8.15;2.40;;;23.60;99.90;;;;;;4230800;28;20904;-79
2022/08/08 11:01:57;;;;;;;4.93;2.30;;;23.70;99.90;;;;;;4228490;28;20282;-79
2022/08/08 11:04:00;;;;;;;9.02;2.40;;;23.70;99.90;;;;;;4225803;28;20604;-79
2022/08/08 11:06:07;;;;;;;4.43;2.22;;;23.70;99.90;;;;;;4231608;28;20286;-79
2022/08/08 11:08:20;;;;;;;7.00;2.33;;;23.70;99.90;;;;;;4230923;28;20278;-79
2022/08/08 11:10:24;;;;;;;6.00;2.35;;;23.70;99.90;;;;;;4231472;28;20213;-79
2022/08/08 11:12:26;;;;;;;5.50;2.30;;;23.60;99.90;;;;;;4231079;28;20217;-79
2022/08/08 11:14:30;;;;;;;5.07;2.13;;;23.60;99.90;;;;;;4227282;28;20210;-79
2022/08/08 11:16:54;;;;;;;9.60;2.38;;;23.70;99.90;;;;;;4231711;28;20233;-79
2022/08/08 11:18:59;;;;;;;5.00;2.17;;;23.70;99.90;;;;;;4222119;28;20259;-79
2022/08/08 11:21:04;;;;;;;3.72;2.00;;;23.70;99.90;;;;;;4231594;28;20630;-79
2022/08/08 11:23:10;;;;;;;4.03;2.00;;;23.70;99.90;;;;;;4233173;27;20251;-77
2022/08/08 11:25:13;;;;;;;2.72;1.92;;;23.70;99.90;;;;;;4222814;28;20272;-77